Saturday, April 19, 2014, 8:22 AM EDT

KSHD, Staunton / Shenandoah

Location: Weyers Cave, VA, United States Lat: 38.267
Local Time: 8:22 AM EDT (12:22 GMT) Lon: -78.9
Time Zone: US/Eastern Elev: 1200 ft

Show me the last for .
Show Decoded

2014-04-19 07:55 METAR KSHD 191155Z AUTO 01003KT 10SM CLR 06/04 A3028 RMK AO2 T00600041 10066
                 20039 =
2014-04-19 07:35 METAR KSHD 191135Z AUTO 05003KT 10SM CLR 05/04 A3027 RMK AO2 T00510035 =
2014-04-19 07:15 METAR KSHD 191115Z AUTO 00000KT 10SM CLR 05/03 A3027 RMK AO2 T00450029 =
2014-04-19 06:55 METAR KSHD 191055Z AUTO 00000KT 10SM CLR 04/02 A3026 RMK AO2 T00400022 =
2014-04-19 06:35 METAR KSHD 191035Z AUTO 00000KT 10SM CLR 05/03 A3025 RMK AO2 T00450030 =
2014-04-19 06:15 METAR KSHD 191015Z AUTO 00000KT 10SM CLR 04/03 A3024 RMK AO2 T00440029 =
2014-04-19 05:55 METAR KSHD 190955Z AUTO 00000KT 10SM CLR 04/03 A3024 RMK AO2 T00410026 =
2014-04-19 05:35 METAR KSHD 190935Z AUTO 00000KT 10SM CLR 04/03 A3023 RMK AO2 T00430029 =
2014-04-19 05:15 METAR KSHD 190915Z AUTO 00000KT 10SM CLR 04/03 A3023 RMK AO2 T00410026 =
2014-04-19 04:55 METAR KSHD 190855Z AUTO 00000KT 10SM CLR 04/03 A3022 RMK AO2 T00410025 =
2014-04-19 04:35 METAR KSHD 190835Z AUTO 00000KT 10SM CLR 05/03 A3023 RMK AO2 T00530032 =
2014-04-19 04:15 METAR KSHD 190815Z AUTO 00000KT 10SM CLR 05/03 A3022 RMK AO2 T00500030 =
2014-04-19 03:55 METAR KSHD 190755Z AUTO 00000KT 10SM CLR 05/03 A3022 RMK AO2 T00530033 =
2014-04-19 03:35 METAR KSHD 190735Z AUTO 00000KT 10SM CLR 05/03 A3023 RMK AO2 T00540032 =
2014-04-19 03:15 METAR KSHD 190715Z AUTO 00000KT 10SM CLR 06/03 A3023 RMK AO2 T00550033 =
2014-04-19 02:55 METAR KSHD 190655Z AUTO 00000KT 10SM CLR 06/03 A3023 RMK AO2 T00550031 =
2014-04-19 02:35 METAR KSHD 190635Z AUTO 00000KT 10SM CLR 06/03 A3024 RMK AO2 T00550031 =
2014-04-19 02:15 METAR KSHD 190615Z AUTO 05003KT 10SM CLR 06/03 A3025 RMK AO2 T00560031 =
2014-04-19 01:55 METAR KSHD 190555Z AUTO 00000KT 10SM CLR 07/03 A3025 RMK AO2 T00660032 10105
                 20057 401480000 =
2014-04-19 01:35 METAR KSHD 190535Z AUTO 00000KT 10SM CLR 06/03 A3026 RMK AO2 T00600031 =
2014-04-19 01:15 METAR KSHD 190515Z AUTO 16003KT 10SM CLR 06/03 A3025 RMK AO2 T00620032 =
2014-04-19 00:55 METAR KSHD 190455Z AUTO 00000KT 10SM CLR 07/03 A3025 RMK AO2 T00670031 =
2014-04-19 00:35 METAR KSHD 190435Z AUTO 00000KT 10SM CLR 07/03 A3026 RMK AO2 T00680031 =
2014-04-19 00:15 METAR KSHD 190415Z AUTO 00000KT 10SM CLR 07/04 A3026 RMK AO2 T00700036 =
2014-04-18 23:55 METAR KSHD 190355Z AUTO 00000KT 10SM CLR 07/03 A3027 RMK AO2 T00720033 =
2014-04-18 23:35 METAR KSHD 190335Z AUTO 00000KT 10SM CLR 07/04 A3027 RMK AO2 T00700035 =
2014-04-18 23:15 METAR KSHD 190315Z AUTO 00000KT 10SM CLR 07/04 A3028 RMK AO2 T00740035 =
2014-04-18 22:55 METAR KSHD 190255Z AUTO 00000KT 10SM CLR 08/03 A3028 RMK AO2 T00780031 =
2014-04-18 22:35 METAR KSHD 190235Z AUTO 00000KT 10SM CLR 09/03 A3028 RMK AO2 T00850029 =
2014-04-18 22:15 METAR KSHD 190215Z AUTO 00000KT 10SM CLR 09/03 A3028 RMK AO2 T00860030 =
2014-04-18 21:55 METAR KSHD 190155Z AUTO 00000KT 10SM CLR 09/03 A3028 RMK AO2 T00860031 =
2014-04-18 21:35 METAR KSHD 190135Z AUTO 24003KT 10SM CLR 09/03 A3028 RMK AO2 T00920027 =
2014-04-18 21:15 METAR KSHD 190115Z AUTO 00000KT 10SM CLR 10/03 A3029 RMK AO2 T00950025 =
2014-04-18 20:55 METAR KSHD 190055Z AUTO 00000KT 10SM CLR 10/02 A3028 RMK AO2 T01010021 =
2014-04-18 20:35 METAR KSHD 190035Z AUTO 20004KT 10SM CLR 11/02 A3028 RMK AO2 T01050022 =
2014-04-18 20:15 METAR KSHD 190015Z AUTO 18005KT 10SM CLR 11/03 A3028 RMK AO2 T01050028 =
2014-04-18 19:55 METAR KSHD 182355Z AUTO 24003KT 10SM CLR 11/03 A3028 RMK AO2 T01060032 10148
                 20106 =
2014-04-18 19:35 METAR KSHD 182335Z AUTO 15003KT 10SM CLR 12/02 A3028 RMK AO2 T01200022 =
2014-04-18 19:15 METAR KSHD 182315Z AUTO 17004KT 10SM CLR 12/02 A3028 RMK AO2 T01240023 =
2014-04-18 18:55 METAR KSHD 182255Z AUTO 14003KT 10SM CLR 13/02 A3027 RMK AO2 T01290020 =
2014-04-18 18:35 METAR KSHD 182235Z AUTO 13003KT 10SM CLR 13/02 A3027 RMK AO2 T01320020 =
2014-04-18 18:15 METAR KSHD 182215Z AUTO 14005KT 10SM CLR 14/02 A3027 RMK AO2 T01350019 =
2014-04-18 17:55 METAR KSHD 182155Z AUTO 17004KT 10SM CLR 14/02 A3027 RMK AO2 T01360018 =
2014-04-18 17:35 METAR KSHD 182135Z AUTO 15005KT 10SM CLR 14/02 A3026 RMK AO2 T01360017 =
2014-04-18 17:15 METAR KSHD 182115Z AUTO 18010KT 10SM CLR 14/01 A3028 RMK AO2 T01420014 =
2014-04-18 16:55 METAR KSHD 182055Z AUTO 16005KT 10SM CLR 15/02 A3028 RMK AO2 T01450024 =
2014-04-18 16:35 METAR KSHD 182035Z AUTO 11005KT 10SM CLR 15/02 A3028 RMK AO2 T01460015 =
2014-04-18 16:15 METAR KSHD 182015Z AUTO 15006KT 10SM CLR 14/01 A3029 RMK AO2 T01440008 =
2014-04-18 15:55 METAR KSHD 181955Z AUTO 16004KT 10SM CLR 15/02 A3030 RMK AO2 T01450017 =
2014-04-18 15:35 METAR KSHD 181935Z AUTO 20005KT 10SM CLR 15/03 A3032 RMK AO2 T01460028 =
2014-04-18 15:15 METAR KSHD 181915Z AUTO 00000KT 10SM CLR 14/01 A3034 RMK AO2 T01370013 =
2014-04-18 14:55 METAR KSHD 181855Z AUTO 22004KT 10SM CLR 14/01 A3034 RMK AO2 T01370013 =
2014-04-18 14:35 METAR KSHD 181835Z AUTO 18007KT 10SM CLR 14/02 A3034 RMK AO2 T01400020 =
2014-04-18 14:15 METAR KSHD 181815Z AUTO 00000KT 10SM CLR 14/02 A3035 RMK AO2 T01350021 =
2014-04-18 13:55 METAR KSHD 181755Z AUTO 25004KT 10SM CLR 13/02 A3036 RMK AO2 T01300019 10131
                 20015 =
2014-04-18 13:35 METAR KSHD 181735Z AUTO 23006KT 10SM CLR 13/03 A3037 RMK AO2 T01250027 =
2014-04-18 13:15 METAR KSHD 181715Z AUTO 00000KT 10SM CLR 12/02 A3037 RMK AO2 T01180023 =
2014-04-18 12:55 METAR KSHD 181655Z AUTO 20004KT 10SM CLR 11/02 A3038 RMK AO2 T01120022 =
2014-04-18 12:35 METAR KSHD 181635Z AUTO 20003KT 10SM CLR 10/02 A3040 RMK AO2 T01030020 =
2014-04-18 12:15 METAR KSHD 181615Z AUTO 25005KT 10SM CLR 10/02 A3041 RMK AO2 T01000024 =
2014-04-18 11:55 METAR KSHD 181555Z AUTO 20005KT 10SM CLR 09/02 A3042 RMK AO2 T00920019 =
2014-04-18 11:35 METAR KSHD 181535Z AUTO 24005KT 10SM CLR 08/02 A3043 RMK AO2 T00810015 =
2014-04-18 11:15 METAR KSHD 181515Z AUTO 00000KT 10SM CLR 08/01 A3043 RMK AO2 T00760014 =
2014-04-18 10:55 METAR KSHD 181455Z AUTO 00000KT 10SM CLR 07/01 A3044 RMK AO2 T00700013 =
2014-04-18 10:35 METAR KSHD 181435Z AUTO 24004KT 10SM CLR 06/01 A3045 RMK AO2 T00640010 =
2014-04-18 10:15 METAR KSHD 181415Z AUTO 00000KT 10SM CLR 06/01 A3044 RMK AO2 T00570005 =
2014-04-18 09:55 METAR KSHD 181355Z AUTO 00000KT 10SM CLR 05/01 A3044 RMK AO2 T00540011 =
2014-04-18 09:35 METAR KSHD 181335Z AUTO 00000KT 10SM CLR 05/01 A3045 RMK AO2 T00450007 =
2014-04-18 09:15 METAR KSHD 181315Z AUTO 00000KT 10SM CLR 04/00 A3046 RMK AO2 T00350003 =
2014-04-18 08:55 METAR KSHD 181255Z AUTO 00000KT 10SM CLR 03/01 A3046 RMK AO2 T00310005 =
2014-04-18 08:35 METAR KSHD 181235Z AUTO 00000KT 10SM CLR 03/01 A3046 RMK AO2 T00260005 =

Support USWX by starting your Amazon purchase here.